Time;durP1;ratioP1;P1;durP2;ratioP2;P2;SDS_P1;SDS_P2;PMS_P1;PMS_P2;Temp;Humidity;BMP_temperature;BMP_pressure;BME280_temperature;BME280_humidity;BME280_pressure;Samples;Min_cycle;Max_cycle;Signal;HPM_P1;HPM_P2
2023/01/15 00:02:19;;;;;;;26.90;13.10;;;;;;;0.04;85.14;101912.42;107566;1252;107715;-60
2023/01/15 00:04:50;;;;;;;25.20;13.60;;;;;;;0.10;85.30;101919.33;107589;1254;97851;-61
2023/01/15 00:07:19;;;;;;;25.40;12.90;;;;;;;0.16;85.47;101924.48;107586;1254;97718;-60
2023/01/15 00:09:49;;;;;;;26.30;13.70;;;;;;;0.20;85.31;101925.27;107588;1254;111644;-60
2023/01/15 00:12:17;;;;;;;28.40;13.50;;;;;;;0.25;85.51;101925.64;107629;1254;109098;-59
2023/01/15 00:14:45;;;;;;;22.20;12.70;;;;;;;0.30;85.88;101924.08;107614;1254;107851;-60
2023/01/15 00:17:14;;;;;;;28.80;12.90;;;;;;;0.36;85.78;101918.84;107629;1254;97858;-59
2023/01/15 00:19:42;;;;;;;23.10;11.70;;;;;;;0.38;85.57;101919.31;107651;1254;97914;-58
2023/01/15 00:22:10;;;;;;;26.00;13.10;;;;;;;0.39;85.35;101915.57;107596;1253;112422;-59
2023/01/15 00:27:40;;;;;;;31.70;13.90;;;;;;;0.41;85.61;101909.50;107569;1254;108519;-61
2023/01/15 00:30:12;;;;;;;26.90;13.10;;;;;;;0.39;85.47;101902.52;107513;1257;97969;-59
2023/01/15 00:32:41;;;;;;;28.90;14.00;;;;;;;0.41;85.73;101897.52;107636;1255;97705;-60
2023/01/15 00:35:15;;;;;;;26.50;12.80;;;;;;;0.44;85.56;101901.83;107577;1254;112387;-60
2023/01/15 00:37:44;;;;;;;22.30;10.80;;;;;;;0.47;85.62;101908.11;107605;1254;110165;-59
2023/01/15 00:40:14;;;;;;;22.80;12.40;;;;;;;0.54;85.85;101913.93;107625;1253;108333;-59
2023/01/15 00:42:43;;;;;;;21.90;11.30;;;;;;;0.61;85.87;101911.77;107598;1254;97814;-59
2023/01/15 00:45:22;;;;;;;23.20;12.10;;;;;;;0.69;85.95;101897.60;107625;1254;97828;-59
2023/01/15 00:47:50;;;;;;;24.00;12.20;;;;;;;0.75;86.00;101892.51;107595;1256;112257;-63
2023/01/15 00:50:19;;;;;;;21.90;11.30;;;;;;;0.75;85.26;101885.79;107559;1254;109818;-59
2023/01/15 00:52:47;;;;;;;26.20;11.20;;;;;;;0.70;84.66;101885.92;107558;1256;108762;-59
2023/01/15 00:55:15;;;;;;;21.50;11.50;;;;;;;0.64;84.70;101884.16;107556;1254;97940;-60
2023/01/15 00:57:44;;;;;;;23.90;12.80;;;;;;;0.61;85.13;101881.23;107559;1254;97816;-62
2023/01/15 01:00:13;;;;;;;26.20;13.10;;;;;;;0.58;84.83;101881.85;107600;1254;111927;-61
2023/01/15 01:02:41;;;;;;;25.10;12.90;;;;;;;0.52;84.60;101880.06;107542;1258;110226;-59
2023/01/15 01:05:10;;;;;;;27.00;13.50;;;;;;;0.51;84.83;101881.37;107460;1252;108875;-60
2023/01/15 01:07:38;;;;;;;26.50;13.00;;;;;;;0.50;84.68;101881.20;107585;1252;97845;-59
2023/01/15 01:10:08;;;;;;;25.30;13.20;;;;;;;0.50;84.98;101875.89;107569;1254;98540;-59
2023/01/15 01:12:36;;;;;;;29.10;13.90;;;;;;;0.51;84.95;101871.27;107605;1254;110968;-60
2023/01/15 01:15:05;;;;;;;25.90;13.50;;;;;;;0.50;84.81;101871.33;107552;1253;109702;-59
2023/01/15 01:17:36;;;;;;;28.10;12.30;;;;;;;0.50;85.03;101874.12;107611;1256;107260;-60
2023/01/15 01:20:06;;;;;;;23.80;12.10;;;;;;;0.52;85.35;101875.48;107584;1254;97838;-61
2023/01/15 01:22:34;;;;;;;22.80;11.50;;;;;;;0.57;85.37;101875.35;107624;1254;97730;-61
2023/01/15 01:25:02;;;;;;;22.70;11.20;;;;;;;0.60;85.38;101876.12;107570;1252;111659;-59
2023/01/15 01:27:31;;;;;;;21.70;11.60;;;;;;;0.63;85.42;101874.63;107613;1254;108316;-60
2023/01/15 01:30:00;;;;;;;23.10;11.90;;;;;;;0.70;85.60;101867.36;107562;1253;108727;-61
2023/01/15 01:32:28;;;;;;;22.40;10.60;;;;;;;0.79;85.88;101869.40;107612;1254;97845;-59
2023/01/15 01:34:57;;;;;;;22.00;11.90;;;;;;;0.90;85.81;101869.96;107657;1254;98347;-59
2023/01/15 01:37:25;;;;;;;23.30;11.30;;;;;;;0.92;85.03;101867.05;107648;1254;111815;-60
2023/01/15 01:39:54;;;;;;;25.10;10.50;;;;;;;0.92;84.57;101861.60;107669;1254;109886;-61
2023/01/15 01:42:22;;;;;;;20.40;10.90;;;;;;;0.89;84.06;101862.59;107623;1252;108753;-61
2023/01/15 01:44:51;;;;;;;22.60;12.60;;;;;;;0.84;83.95;101863.06;107618;1254;97820;-60
2023/01/15 01:47:24;;;;;;;24.30;12.60;;;;;;;0.79;83.76;101864.27;107614;1254;98348;-60
2023/01/15 01:49:57;;;;;;;22.00;11.00;;;;;;;0.73;83.43;101864.29;107696;1254;112079;-60
2023/01/15 01:52:45;;;;;;;20.00;10.50;;;;;;;0.65;83.22;101859.05;107531;1254;110063;-61
2023/01/15 01:55:17;;;;;;;18.60;10.40;;;;;;;0.56;83.05;101852.05;107614;1255;108102;-59
2023/01/15 01:57:50;;;;;;;21.60;10.30;;;;;;;0.45;83.08;101844.27;107649;1254;97850;-61
2023/01/15 02:00:19;;;;;;;20.90;10.70;;;;;;;0.38;83.31;101846.40;107509;1253;98381;-59
2023/01/15 02:02:50;;;;;;;17.50;10.40;;;;;;;0.37;83.48;101850.52;107563;1254;112226;-60
2023/01/15 02:05:29;;;;;;;19.50;9.90;;;;;;;0.37;83.79;101847.33;107569;1254;110054;-59
2023/01/15 02:07:59;;;;;;;17.20;10.20;;;;;;;0.35;83.96;101842.27;107520;1253;110211;-62
2023/01/15 02:10:28;;;;;;;19.10;10.10;;;;;;;0.31;83.99;101835.99;107381;1253;97906;-61
2023/01/15 02:13:07;;;;;;;18.40;9.20;;;;;;;0.31;84.17;101837.95;107589;1254;97784;-60
2023/01/15 02:15:46;;;;;;;20.10;10.50;;;;;;;0.33;84.33;101831.01;107651;1256;111358;-60
2023/01/15 02:18:40;;;;;;;18.50;9.40;;;;;;;0.34;84.28;101825.70;107522;1254;109999;-60
2023/01/15 02:21:23;;;;;;;20.10;9.60;;;;;;;0.37;84.56;101827.39;107536;1254;107827;-60
2023/01/15 02:24:06;;;;;;;18.50;11.20;;;;;;;0.40;84.63;101829.42;107613;1254;97822;-61
2023/01/15 02:27:00;;;;;;;20.20;10.50;;;;;;;0.43;84.55;101825.62;107561;1256;98389;-60
2023/01/15 02:29:33;;;;;;;20.20;10.30;;;;;;;0.42;84.37;101827.92;107575;1253;111388;-60
2023/01/15 02:32:09;;;;;;;16.90;9.50;;;;;;;0.41;84.49;101826.90;107599;1252;108873;-60
2023/01/15 02:34:47;;;;;;;21.70;11.90;;;;;;;0.44;84.79;101838.30;107592;1255;108276;-61
2023/01/15 02:37:24;;;;;;;22.80;11.10;;;;;;;0.50;84.67;101838.65;107569;1253;97820;-59
2023/01/15 02:39:56;;;;;;;18.80;10.60;;;;;;;0.53;84.74;101831.86;107598;1254;97720;-59
2023/01/15 02:42:28;;;;;;;20.40;11.30;;;;;;;0.55;84.47;101828.25;107609;1256;111315;-61
2023/01/15 02:45:01;;;;;;;21.40;10.40;;;;;;;0.57;84.58;101824.85;107587;1252;109985;-60
2023/01/15 02:47:34;;;;;;;21.20;12.10;;;;;;;0.61;84.60;101828.96;107479;1256;107838;-60
2023/01/15 02:50:09;;;;;;;20.10;10.10;;;;;;;0.66;84.81;101828.65;107480;1254;97842;-60
2023/01/15 02:52:50;;;;;;;22.20;11.30;;;;;;;0.72;85.07;101827.95;107618;1253;97725;-59
2023/01/15 02:55:30;;;;;;;20.50;10.20;;;;;;;0.80;85.13;101828.77;107606;1254;112079;-59
2023/01/15 02:58:04;;;;;;;18.20;10.00;;;;;;;0.84;84.74;101823.68;107615;1253;109797;-59
2023/01/15 03:00:37;;;;;;;15.40;8.80;;;;;;;0.85;84.38;101813.60;107505;1254;108399;-60
2023/01/15 03:03:13;;;;;;;17.30;9.40;;;;;;;0.87;84.19;101810.89;107608;1253;97851;-60
2023/01/15 03:05:56;;;;;;;17.70;9.10;;;;;;;0.89;84.64;101815.77;107660;1253;98321;-60
2023/01/15 03:08:25;;;;;;;23.10;11.70;;;;;;;0.90;84.26;101813.95;107465;1254;111690;-60
2023/01/15 03:11:15;;;;;;;19.30;10.00;;;;;;;0.86;84.07;101809.48;107553;1254;110002;-62
2023/01/15 03:14:05;;;;;;;17.20;10.00;;;;;;;0.84;83.86;101805.85;107557;1253;108219;-61
2023/01/15 03:16:44;;;;;;;15.60;8.70;;;;;;;0.79;83.30;101813.77;107544;1253;97813;-61
2023/01/15 03:19:33;;;;;;;15.60;8.70;;;;;;;0.74;83.31;101817.13;107623;1254;98376;-58
2023/01/15 03:22:08;;;;;;;17.30;9.30;;;;;;;0.61;82.83;101814.48;107649;1253;111798;-60
2023/01/15 03:24:46;;;;;;;15.20;9.10;;;;;;;0.54;82.93;101812.77;107579;1254;109717;-60
2023/01/15 03:27:15;;;;;;;16.30;8.00;;;;;;;0.49;82.96;101812.91;107576;1254;107815;-60
2023/01/15 03:29:50;;;;;;;16.60;9.20;;;;;;;0.43;82.99;101808.14;107549;1256;99451;-60
2023/01/15 03:32:21;;;;;;;13.60;8.30;;;;;;;0.34;83.03;101803.81;107530;1254;97764;-60
2023/01/15 03:34:52;;;;;;;15.10;9.00;;;;;;;0.28;83.01;101804.36;107658;1256;111317;-60
2023/01/15 03:37:24;;;;;;;17.80;9.90;;;;;;;0.25;82.97;101803.55;107550;1254;110235;-60
2023/01/15 03:39:55;;;;;;;17.50;9.10;;;;;;;0.24;82.95;101796.70;107589;1256;107551;-59
2023/01/15 03:42:44;;;;;;;15.60;8.70;;;;;;;0.23;83.18;101794.77;107602;1254;97881;-59
2023/01/15 03:45:30;;;;;;;16.30;10.50;;;;;;;0.25;83.47;101795.59;107676;1254;97885;-59
2023/01/15 03:48:10;;;;;;;21.40;11.90;;;;;;;0.29;83.93;101801.66;107638;1254;112358;-59
2023/01/15 03:51:07;;;;;;;24.90;12.50;;;;;;;0.36;84.00;101809.94;107638;1255;109801;-59
2023/01/15 03:53:42;;;;;;;23.50;12.10;;;;;;;0.42;84.31;101803.95;107508;1254;108098;-62
2023/01/15 03:56:13;;;;;;;24.70;12.10;;;;;;;0.49;84.52;101802.86;107376;1254;97892;-60
2023/01/15 03:59:12;;;;;;;28.50;12.50;;;;;;;0.57;84.74;101806.50;107626;1256;98379;-59
2023/01/15 04:01:55;;;;;;;30.20;13.20;;;;;;;0.64;84.90;101805.05;107591;1254;111391;-60
2023/01/15 04:04:26;;;;;;;27.20;13.00;;;;;;;0.67;84.57;101789.80;107552;1256;109628;-62
2023/01/15 04:06:57;;;;;;;30.40;13.50;;;;;;;0.68;84.65;101788.14;107570;1254;107650;-63
2023/01/15 04:09:26;;;;;;;33.40;15.20;;;;;;;0.69;84.65;101801.90;107594;1256;97871;-59
2023/01/15 04:11:59;;;;;;;29.00;14.10;;;;;;;0.76;85.28;101797.63;107605;1256;98417;-60
2023/01/15 04:14:32;;;;;;;26.60;13.00;;;;;;;0.82;85.10;101794.45;107648;1253;112837;-60
2023/01/15 04:17:06;;;;;;;26.40;12.70;;;;;;;0.84;84.93;101799.14;107622;1254;108896;-60
2023/01/15 04:19:35;;;;;;;26.90;12.00;;;;;;;0.88;84.96;101801.67;107603;1254;106974;-59
2023/01/15 04:22:08;;;;;;;28.50;13.30;;;;;;;0.94;85.21;101808.55;107565;1256;98540;-61
2023/01/15 04:24:37;;;;;;;32.90;13.10;;;;;;;0.97;84.97;101806.35;107555;1256;98357;-60
2023/01/15 04:27:05;;;;;;;29.90;13.50;;;;;;;0.95;84.84;101807.80;107551;1254;112319;-59
2023/01/15 04:29:33;;;;;;;26.20;12.80;;;;;;;0.96;84.66;101808.65;107324;1254;109431;-60
2023/01/15 04:32:03;;;;;;;26.10;13.70;;;;;;;0.95;84.61;101809.92;107560;1253;108517;-59
2023/01/15 04:34:33;;;;;;;29.50;14.40;;;;;;;1.00;85.03;101814.19;107609;1257;97849;-60
2023/01/15 04:37:01;;;;;;;27.10;13.70;;;;;;;1.02;84.63;101806.02;107635;1253;97723;-59
2023/01/15 04:39:30;;;;;;;29.00;13.60;;;;;;;0.99;84.23;101800.96;107577;1254;115181;-59
2023/01/15 04:44:45;;;;;;;26.10;13.60;;;;;;;0.96;84.44;101809.36;107526;1254;108166;-59
2023/01/15 04:47:14;;;;;;;29.30;13.20;;;;;;;0.99;84.76;101813.71;107555;1256;97856;-60
2023/01/15 04:49:42;;;;;;;27.90;12.50;;;;;;;1.00;84.62;101813.11;107591;1254;97893;-61
2023/01/15 04:52:11;;;;;;;29.40;13.20;;;;;;;1.00;84.60;101808.19;107538;1254;112270;-60
2023/01/15 04:54:39;;;;;;;23.60;11.80;;;;;;;0.97;84.49;101807.92;107562;1254;109163;-59
2023/01/15 04:57:10;;;;;;;22.90;12.60;;;;;;;0.92;84.20;101807.36;107523;1254;108209;-61
2023/01/15 04:59:38;;;;;;;24.30;11.50;;;;;;;0.84;84.03;101809.92;107624;1254;97876;-61
2023/01/15 05:02:07;;;;;;;24.00;11.70;;;;;;;0.72;83.83;101812.22;107611;1254;97780;-60
2023/01/15 05:04:36;;;;;;;23.60;11.90;;;;;;;0.64;83.77;101809.64;107644;1254;112286;-60
2023/01/15 05:07:05;;;;;;;28.40;12.40;;;;;;;0.58;84.03;101813.36;107631;1256;108887;-59
2023/01/15 05:09:33;;;;;;;30.90;13.10;;;;;;;0.51;84.06;101813.56;107557;1254;108405;-59
2023/01/15 05:12:02;;;;;;;31.60;13.40;;;;;;;0.44;84.12;101812.34;107630;1256;97823;-60
2023/01/15 05:14:30;;;;;;;33.20;13.40;;;;;;;0.41;84.21;101811.56;107618;1256;97707;-60
2023/01/15 05:16:59;;;;;;;24.80;12.60;;;;;;;0.36;83.95;101806.77;107578;1254;111333;-59
2023/01/15 05:19:27;;;;;;;27.50;12.90;;;;;;;0.33;84.14;101807.56;107554;1254;109673;-59
2023/01/15 05:21:55;;;;;;;24.90;12.60;;;;;;;0.30;84.34;101800.58;107550;1254;108721;-58
2023/01/15 05:24:24;;;;;;;21.30;10.80;;;;;;;0.27;84.48;101801.17;107608;1254;97819;-60
2023/01/15 05:26:52;;;;;;;19.50;11.30;;;;;;;0.24;84.51;101801.10;107641;1253;98360;-60
2023/01/15 05:29:21;;;;;;;24.80;11.50;;;;;;;0.21;84.45;101810.02;107594;1254;112950;-60
2023/01/15 05:31:49;;;;;;;23.40;12.00;;;;;;;0.21;84.64;101810.55;107598;1256;109539;-60
2023/01/15 05:34:18;;;;;;;19.20;9.90;;;;;;;0.22;84.71;101803.83;107480;1254;108105;-60
2023/01/15 05:36:46;;;;;;;21.10;10.10;;;;;;;0.22;85.12;101794.48;107594;1254;97905;-59
2023/01/15 05:39:14;;;;;;;25.10;12.20;;;;;;;0.24;85.32;101791.58;107588;1254;97922;-60
2023/01/15 05:41:49;;;;;;;20.80;10.40;;;;;;;0.30;85.59;101786.64;107647;1254;111872;-61
2023/01/15 05:44:18;;;;;;;16.10;8.40;;;;;;;0.34;85.69;101784.77;107553;1257;109063;-62
2023/01/15 05:46:48;;;;;;;18.20;8.70;;;;;;;0.38;85.82;101787.82;107594;1254;108068;-60
2023/01/15 05:49:19;;;;;;;16.30;7.50;;;;;;;0.42;85.99;101787.01;107574;1257;97828;-60
2023/01/15 05:51:49;;;;;;;14.60;7.20;;;;;;;0.49;85.99;101797.04;107590;1254;97934;-61
2023/01/15 05:54:23;;;;;;;19.60;7.70;;;;;;;0.55;86.14;101792.44;107626;1254;111295;-60
2023/01/15 05:56:52;;;;;;;15.80;8.80;;;;;;;0.62;85.94;101792.77;107661;1254;110234;-59
2023/01/15 05:59:23;;;;;;;16.10;7.90;;;;;;;0.68;86.15;101785.67;107606;1255;107365;-59
2023/01/15 06:01:52;;;;;;;14.60;8.20;;;;;;;0.73;85.90;101785.18;107591;1254;97840;-60
2023/01/15 06:04:23;;;;;;;12.10;7.70;;;;;;;0.71;85.36;101784.89;107625;1254;97703;-61
2023/01/15 06:06:55;;;;;;;11.70;6.20;;;;;;;0.70;85.31;101786.34;107588;1254;110107;-59
2023/01/15 06:09:26;;;;;;;18.10;9.10;;;;;;;0.69;85.47;101784.42;107613;1254;109882;-60
2023/01/15 06:11:57;;;;;;;18.20;8.70;;;;;;;0.69;85.29;101784.42;107633;1254;107601;-61
2023/01/15 06:14:25;;;;;;;20.50;9.20;;;;;;;0.69;85.36;101784.08;107564;1254;97902;-60
2023/01/15 06:16:54;;;;;;;19.00;10.10;;;;;;;0.69;85.19;101783.54;107553;1254;97726;-60
2023/01/15 06:19:22;;;;;;;15.60;9.10;;;;;;;0.69;85.43;101788.14;107645;1254;110559;-60
2023/01/15 06:21:50;;;;;;;20.40;10.10;;;;;;;0.70;85.60;101786.16;107587;1255;109528;-61
2023/01/15 06:24:19;;;;;;;18.90;9.90;;;;;;;0.71;85.48;101789.31;107577;1254;108180;-62
2023/01/15 06:26:48;;;;;;;20.60;9.50;;;;;;;0.70;85.47;101790.75;107602;1257;97883;-59
2023/01/15 06:29:17;;;;;;;20.60;9.80;;;;;;;0.72;85.54;101791.74;107620;1254;97825;-58
2023/01/15 06:31:48;;;;;;;15.90;8.60;;;;;;;0.75;85.82;101786.86;107619;1255;110868;-60
2023/01/15 06:34:16;;;;;;;21.00;10.10;;;;;;;0.81;85.79;101787.23;107632;1254;110166;-60
2023/01/15 06:36:45;;;;;;;24.30;11.60;;;;;;;0.84;85.81;101782.02;107629;1254;108085;-60
2023/01/15 06:39:13;;;;;;;17.10;8.60;;;;;;;0.90;86.05;101784.11;107612;1254;97823;-62
2023/01/15 06:47:19;;;;;;;10.60;6.30;;;;;;;0.97;85.24;101789.02;107597;1254;109268;-60
2023/01/15 06:49:50;;;;;;;10.70;5.80;;;;;;;1.00;85.39;101787.88;107596;1254;108636;-60
2023/01/15 06:52:18;;;;;;;11.90;6.00;;;;;;;1.03;85.27;101784.77;107621;1254;97854;-60
2023/01/15 06:54:46;;;;;;;16.00;7.60;;;;;;;1.07;85.07;101779.52;107613;1254;99484;-61
2023/01/15 06:57:15;;;;;;;15.60;8.50;;;;;;;1.09;85.13;101780.33;107598;1253;111935;-59
2023/01/15 06:59:43;;;;;;;16.00;8.50;;;;;;;1.11;85.02;101782.04;107566;1253;109761;-60
2023/01/15 07:02:12;;;;;;;10.60;6.60;;;;;;;1.15;85.19;101776.63;107605;1254;108065;-58
2023/01/15 07:04:40;;;;;;;13.30;7.70;;;;;;;1.18;85.02;101774.58;107654;1256;97953;-59
2023/01/15 07:07:09;;;;;;;18.40;8.30;;;;;;;1.19;84.83;101776.11;107615;1254;97738;-60
2023/01/15 07:09:38;;;;;;;12.20;6.60;;;;;;;1.21;84.97;101772.84;107589;1253;112410;-59
2023/01/15 07:12:06;;;;;;;11.20;5.50;;;;;;;1.23;84.73;101771.39;107612;1256;110043;-61
2023/01/15 07:14:35;;;;;;;13.90;7.40;;;;;;;1.21;84.28;101767.20;107570;1254;108847;-61
2023/01/15 07:17:04;;;;;;;16.00;8.80;;;;;;;1.20;84.31;101767.59;107711;1254;97832;-59
2023/01/15 07:19:32;;;;;;;16.20;9.80;;;;;;;1.19;84.49;101765.86;107609;1253;97781;-60
2023/01/15 07:22:00;;;;;;;18.30;9.80;;;;;;;1.16;84.28;101767.04;107510;1254;111832;-59
2023/01/15 07:24:29;;;;;;;17.50;9.60;;;;;;;1.09;84.36;101761.23;107578;1255;110822;-61
2023/01/15 07:26:57;;;;;;;14.90;8.40;;;;;;;1.02;84.43;101766.25;107644;1254;109253;-59
2023/01/15 07:29:25;;;;;;;15.40;8.10;;;;;;;0.98;84.41;101758.81;107545;1254;98534;-62
2023/01/15 07:31:55;;;;;;;16.30;8.40;;;;;;;0.97;84.31;101761.10;107548;1254;97829;-59
2023/01/15 07:34:23;;;;;;;16.30;8.20;;;;;;;0.98;84.43;101757.71;107665;1256;111685;-60
2023/01/15 07:36:51;;;;;;;15.30;7.20;;;;;;;1.00;84.49;101756.07;107591;1254;110190;-60
2023/01/15 07:39:20;;;;;;;13.10;6.60;;;;;;;1.04;84.54;101755.39;107571;1254;109579;-59
2023/01/15 07:50:21;;;;;;;4.40;3.30;;;;;;;1.20;84.46;101765.67;107541;1254;108725;-61
2023/01/15 07:52:50;;;;;;;4.30;3.10;;;;;;;1.22;84.03;101765.42;107510;1254;108361;-61
2023/01/15 07:55:21;;;;;;;5.80;3.10;;;;;;;1.25;84.08;101762.30;107603;1254;97910;-60
2023/01/15 07:57:50;;;;;;;5.70;3.70;;;;;;;1.29;84.25;101768.38;107665;1253;97781;-60
2023/01/15 08:00:22;;;;;;;6.40;3.50;;;;;;;1.30;84.07;101772.94;107631;1254;111981;-60
2023/01/15 08:02:51;;;;;;;5.30;3.90;;;;;;;1.32;83.88;101771.80;107575;1254;109966;-62
2023/01/15 08:05:20;;;;;;;5.50;3.50;;;;;;;1.36;84.07;101770.77;107525;1253;106834;-61
2023/01/15 08:07:49;;;;;;;5.10;3.50;;;;;;;1.40;83.96;101773.64;107558;1256;97714;-59
2023/01/15 08:10:18;;;;;;;4.60;3.30;;;;;;;1.47;84.08;101773.95;107557;1254;97736;-59
2023/01/15 08:15:41;;;;;;;5.10;3.50;;;;;;;1.54;83.29;101774.59;107629;1256;109425;-62
2023/01/15 08:18:09;;;;;;;;;;;;;;;1.56;83.38;101773.63;107565;1254;108500;-60
2023/01/15 08:20:38;;;;;;;5.90;3.80;;;;;;;1.58;83.21;101770.75;107529;1252;97701;-59
2023/01/15 08:23:06;;;;;;;6.90;4.40;;;;;;;1.57;83.02;101769.54;107548;1253;97848;-61
2023/01/15 08:25:35;;;;;;;8.40;4.60;;;;;;;1.61;83.40;101771.52;107581;1254;111949;-60
2023/01/15 08:28:04;;;;;;;9.40;4.00;;;;;;;1.65;83.42;101771.20;107619;1254;109621;-61
2023/01/15 08:30:32;;;;;;;6.70;3.80;;;;;;;1.69;82.99;101766.84;107625;1257;108516;-59
2023/01/15 08:33:02;;;;;;;7.80;4.40;;;;;;;1.69;82.76;101761.86;107605;1254;97892;-59
2023/01/15 08:35:30;;;;;;;9.70;4.40;;;;;;;1.72;83.24;101756.09;107685;1254;98396;-61
2023/01/15 08:38:04;;;;;;;6.90;4.00;;;;;;;1.79;83.30;101756.91;107516;1254;111902;-59
2023/01/15 08:40:34;;;;;;;5.30;3.60;;;;;;;1.86;83.35;101756.29;107586;1254;110165;-59
2023/01/15 08:43:02;;;;;;;6.00;3.40;;;;;;;1.91;82.93;101757.75;107543;1253;108554;-60
2023/01/15 08:45:31;;;;;;;8.30;4.10;;;;;;;1.94;82.55;101762.93;107597;1254;97831;-62
2023/01/15 08:47:59;;;;;;;5.30;3.40;;;;;;;1.95;81.97;101760.77;107577;1254;97920;-59
2023/01/15 08:50:28;;;;;;;9.30;3.80;;;;;;;1.92;81.47;101756.10;107695;1254;111606;-61
2023/01/15 08:52:56;;;;;;;6.90;3.60;;;;;;;1.90;81.72;101750.73;107631;1256;109188;-62
2023/01/15 08:55:24;;;;;;;7.20;4.40;;;;;;;1.88;81.52;101750.59;107588;1254;108324;-60
2023/01/15 08:57:53;;;;;;;8.70;4.10;;;;;;;1.85;81.55;101742.91;107685;1254;98540;-60
2023/01/15 09:00:23;;;;;;;7.60;4.60;;;;;;;1.81;81.64;101737.58;107659;1254;97726;-61
2023/01/15 09:02:52;;;;;;;7.10;4.10;;;;;;;1.77;81.61;101738.45;107661;1254;112479;-61
2023/01/15 09:05:20;;;;;;;6.80;4.30;;;;;;;1.75;81.66;101729.81;107693;1254;108837;-61
2023/01/15 09:07:49;;;;;;;7.60;4.20;;;;;;;1.73;81.89;101720.52;107645;1253;106672;-60
2023/01/15 09:10:17;;;;;;;6.80;4.30;;;;;;;1.72;82.03;101717.58;107641;1254;97850;-60
2023/01/15 09:12:46;;;;;;;8.10;5.00;;;;;;;1.70;82.10;101715.70;107668;1254;97707;-62
2023/01/15 09:15:15;;;;;;;7.70;5.30;;;;;;;1.71;82.49;101712.26;107625;1254;111412;-60
2023/01/15 09:17:44;;;;;;;8.40;5.10;;;;;;;1.73;82.41;101707.79;107723;1254;109150;-60
2023/01/15 09:20:13;;;;;;;5.40;4.30;;;;;;;1.76;82.69;101711.04;107565;1254;107605;-61
2023/01/15 09:22:42;;;;;;;9.90;5.40;;;;;;;1.78;82.56;101707.60;107563;1253;97937;-59
2023/01/15 09:25:10;;;;;;;8.90;5.50;;;;;;;1.78;82.65;101703.00;107642;1252;98364;-59
2023/01/15 09:27:39;;;;;;;8.10;5.40;;;;;;;1.82;82.71;101695.97;107505;1254;111388;-63
2023/01/15 09:30:16;;;;;;;8.60;5.30;;;;;;;1.83;82.89;101693.45;107651;1252;109696;-60
2023/01/15 09:32:44;;;;;;;10.80;5.50;;;;;;;1.83;82.51;101687.95;107552;1254;108818;-60
2023/01/15 09:35:13;;;;;;;12.20;5.70;;;;;;;1.82;82.47;101683.58;107633;1254;97873;-60
2023/01/15 09:37:41;;;;;;;10.00;6.10;;;;;;;1.84;82.86;101677.66;107639;1253;97710;-61
2023/01/15 09:40:56;;;;;;;10.30;5.70;;;;;;;1.85;82.88;101676.56;107669;1254;112240;-60
2023/01/15 09:43:40;;;;;;;9.60;5.40;;;;;;;1.83;82.51;101668.67;107548;1254;109839;-64
2023/01/15 09:46:29;;;;;;;7.80;4.90;;;;;;;1.82;82.65;101663.60;107575;1252;108622;-59
2023/01/15 09:49:09;;;;;;;9.40;5.90;;;;;;;1.81;82.59;101656.20;107612;1252;97742;-61
2023/01/15 09:52:17;;;;;;;8.50;5.90;;;;;;;1.83;82.86;101649.59;107678;1251;98373;-59
2023/01/15 09:54:54;;;;;;;8.90;5.30;;;;;;;1.83;82.79;101636.67;106854;1260;111736;-61
2023/01/15 09:57:24;;;;;;;8.20;5.40;;;;;;;1.85;82.83;101629.50;107452;1254;111038;-61
2023/01/15 09:59:59;;;;;;;8.70;5.60;;;;;;;1.89;83.08;101628.50;107609;1254;108119;-60
2023/01/15 10:02:38;;;;;;;7.50;5.30;;;;;;;1.92;82.97;101624.29;107537;1254;97853;-60
2023/01/15 10:05:28;;;;;;;8.20;5.50;;;;;;;1.97;82.94;101623.39;107584;1254;98421;-60
2023/01/15 10:08:29;;;;;;;8.00;5.10;;;;;;;2.04;82.81;101619.27;107522;1256;111971;-60
2023/01/15 10:14:46;;;;;;;7.30;5.40;;;;;;;2.08;82.46;101610.40;107411;1254;107806;-59
2023/01/15 10:17:28;;;;;;;10.10;6.40;;;;;;;2.13;82.52;101603.84;107541;1254;98467;-61
2023/01/15 10:19:57;;;;;;;9.50;6.20;;;;;;;2.18;82.60;101595.52;107598;1254;97742;-61
2023/01/15 10:22:55;;;;;;;9.90;6.00;;;;;;;2.24;82.75;101593.67;107639;1256;110850;-60
2023/01/15 10:25:32;;;;;;;8.50;6.00;;;;;;;2.29;82.23;101592.05;107601;1254;109701;-61
2023/01/15 10:28:15;;;;;;;10.50;6.70;;;;;;;2.32;82.17;101585.20;107519;1256;107737;-62
2023/01/15 10:30:56;;;;;;;11.60;6.70;;;;;;;2.38;82.30;101577.88;107667;1253;97828;-63
2023/01/15 10:33:39;;;;;;;12.00;6.40;;;;;;;2.42;82.44;101575.95;107620;1254;97832;-63
2023/01/15 10:36:32;;;;;;;8.80;5.60;;;;;;;2.47;81.86;101570.42;107510;1254;111394;-60
2023/01/15 10:39:15;;;;;;;10.30;6.20;;;;;;;2.45;80.84;101560.79;107547;1253;108483;-60
2023/01/15 10:42:15;;;;;;;12.20;6.70;;;;;;;2.40;81.08;101555.15;107510;1253;108800;-60
2023/01/15 10:45:21;;;;;;;10.10;6.70;;;;;;;2.37;81.27;101552.80;106920;1253;758363;-60
2023/01/15 10:47:59;;;;;;;12.50;6.70;;;;;;;2.39;80.78;101551.46;107407;1252;97855;-62
2023/01/15 10:50:27;;;;;;;9.00;5.60;;;;;;;2.40;80.84;101542.41;107528;1254;111788;-61
2023/01/15 10:52:58;;;;;;;9.00;6.10;;;;;;;2.39;80.65;101540.66;107595;1254;110672;-60
2023/01/15 10:55:42;;;;;;;8.70;5.70;;;;;;;2.38;80.56;101538.05;107431;1253;107905;-60
2023/01/15 10:58:20;;;;;;;8.80;5.80;;;;;;;2.39;80.63;101533.23;107443;1252;98386;-61
2023/01/15 11:01:12;;;;;;;10.80;5.70;;;;;;;2.40;80.29;101533.38;107621;1254;97828;-59
2023/01/15 11:03:43;;;;;;;8.20;5.10;;;;;;;2.41;80.31;101531.91;107555;1253;111193;-61
2023/01/15 11:06:17;;;;;;;9.40;5.90;;;;;;;2.42;80.46;101529.20;107450;1253;111202;-61
2023/01/15 11:08:54;;;;;;;8.40;5.80;;;;;;;2.47;80.69;101522.42;107431;1253;107251;-61
2023/01/15 11:20:42;;;;;;;10.40;6.30;;;;;;;2.58;80.73;101505.50;107520;1254;110054;-60
2023/01/15 11:23:17;;;;;;;10.10;5.60;;;;;;;2.62;80.43;101502.85;107534;1252;107693;-61
2023/01/15 11:25:55;;;;;;;11.70;7.00;;;;;;;2.65;80.24;101500.95;107519;1256;97921;-59
2023/01/15 11:28:38;;;;;;;12.70;6.10;;;;;;;2.67;80.10;101494.31;107513;1252;99534;-61
2023/01/15 11:31:08;;;;;;;;;;;;;;;2.69;79.93;101488.23;107427;1254;112233;-61
2023/01/15 11:33:38;;;;;;;10.20;6.30;;;;;;;2.69;79.74;101491.42;107514;1254;109730;-61
2023/01/15 11:36:19;;;;;;;10.90;6.30;;;;;;;2.70;80.13;101485.53;107685;1253;107994;-60
2023/01/15 11:38:49;;;;;;;12.30;6.40;;;;;;;2.71;79.81;101484.57;107609;1254;97817;-61
2023/01/15 11:50:42;;;;;;;10.60;5.60;;;;;;;2.71;79.79;101484.40;107724;1253;97759;-61
2023/01/15 11:53:07;;;;;;;13.30;7.50;;;;;;;2.83;79.81;101465.11;107587;1254;97844;-59
2023/01/15 11:55:36;;;;;;;12.00;7.20;;;;;;;2.85;79.67;101463.25;107565;1252;97756;-60
2023/01/15 11:58:09;;;;;;;13.40;6.20;;;;;;;2.86;79.56;101458.78;107555;1254;111719;-61
2023/01/15 12:00:45;;;;;;;12.30;6.60;;;;;;;2.86;79.51;101455.40;107459;1254;108898;-61
2023/01/15 12:03:21;;;;;;;14.20;7.40;;;;;;;2.86;79.25;101455.22;107577;1253;108211;-60
2023/01/15 12:06:01;;;;;;;10.40;6.10;;;;;;;2.85;79.22;101458.63;107647;1253;97806;-60
2023/01/15 12:08:43;;;;;;;11.00;6.10;;;;;;;2.87;79.65;101455.34;107619;1256;99491;-59
2023/01/15 12:11:34;;;;;;;11.00;6.10;;;;;;;2.89;79.75;101458.27;107592;1254;111837;-61
2023/01/15 12:14:43;;;;;;;13.20;6.50;;;;;;;2.92;79.83;101463.26;107632;1254;109691;-59
2023/01/15 12:17:33;;;;;;;12.00;6.60;;;;;;;2.92;79.46;101457.23;107638;1254;106591;-62
2023/01/15 12:20:13;;;;;;;11.30;6.70;;;;;;;2.94;79.51;101455.05;107464;1254;97912;-59
2023/01/15 12:22:54;;;;;;;13.60;7.30;;;;;;;2.92;79.45;101458.65;107690;1253;97711;-60
2023/01/15 12:25:38;;;;;;;13.20;8.00;;;;;;;2.88;79.33;101457.63;107620;1254;111271;-60